Accueil
METAR-TAF:

METAR-TAF

Aéroports :

Nouakchott, Mauritanie

Aéroport international de Nouakchott-Oumtounsy

latitude: 18-18-36N, longitude: 015-58-11W, altitude: 3 m

Observation

Le bulletin a été fait il y a 36 minutes, à 07:30 UTC
Vent 6 kt de nord
Température 22°C
Humidité 38%
Pression 1012 hPa
Visibilité: 7000 m

METAR: GQNO 230730Z 36006KT 7000 NSC 22/07 Q1012 NOSIG

Heure: 08:06 (08:06 UTC)

Prévision

Le bulletin a été fait il y a 3 heures et 6 minutes, à 05:00 UTC
Prévision valable du 23 à 06 UTC au 24 à 12 UTC
Vent 12 kt de nord/nord-ouest
Visibilité: 6000 m
Temporairement
du 23 à 10 UTC au 23 à 18 UTC
Vent 14 kt de est
Evoluant progressivement
du 24 à 08 UTC au 24 à 10 UTC
Vent 14 kt de est/nord-est

TAF: GQNO 230500Z 2306/2412 34012KT 6000 NSC TEMPO 2310/2318 08014KT BECMG 2408/2410 07014KT

Observations et prévisions météorologiques de plus de 4000 aéroports (messages METAR et TAF).

Les stations disponibles sont représentées par des disques jaunes et rouges sur la carte.

Passer la souris dessus pour voir le nom de la station.

Cliquer dessus pour voir les observations et prévisions météorologiques.

Pour changer de carte: cliquez sur les boutons verts avec une croix noire pour zoomer, sur le bouton vert avec un tiret pour effectuer un zoom arrière, ou sur les flèches vertes pour les cartes adjacentes.


METAR-TAF: